createdAt,value
2023-03-26T00:02:17.802Z,1.00
2023-03-26T00:04:46.629Z,0.80
2023-03-26T00:07:16.268Z,0.50
2023-03-26T00:09:44.790Z,0.50
2023-03-26T00:12:18.873Z,0.80
2023-03-26T00:14:47.222Z,0.70
2023-03-26T00:17:15.673Z,0.70
2023-03-26T00:19:46.882Z,1.20
2023-03-26T00:24:46.200Z,0.90
2023-03-26T00:27:23.923Z,0.60
2023-03-26T00:29:52.403Z,0.60
2023-03-26T00:32:21.814Z,0.70
2023-03-26T00:35:01.751Z,0.70
2023-03-26T00:37:30.681Z,0.60
2023-03-26T00:40:07.332Z,0.70
2023-03-26T00:42:38.063Z,0.80
2023-03-26T00:45:09.983Z,0.70
2023-03-26T00:47:40.281Z,0.50
2023-03-26T00:50:15.469Z,0.50
2023-03-26T00:52:45.144Z,0.70
2023-03-26T00:55:16.343Z,0.70
2023-03-26T00:57:48.770Z,0.80
2023-03-26T01:00:18.163Z,0.70
2023-03-26T01:02:47.348Z,0.70
2023-03-26T01:05:42.835Z,0.60
2023-03-26T01:08:18.865Z,0.50
2023-03-26T01:10:51.626Z,0.70
2023-03-26T01:13:21.726Z,0.60
2023-03-26T01:15:51.311Z,0.80
2023-03-26T01:18:21.524Z,0.50
2023-03-26T01:20:49.917Z,0.20
2023-03-26T01:23:23.906Z,0.40
2023-03-26T01:26:04.110Z,0.40
2023-03-26T01:28:39.684Z,0.40
2023-03-26T01:31:20.248Z,0.50
2023-03-26T01:33:52.385Z,0.60
2023-03-26T01:36:28.301Z,0.40
2023-03-26T01:39:00.663Z,0.60
2023-03-26T01:41:31.821Z,0.40
2023-03-26T01:44:17.224Z,0.50
2023-03-26T01:46:46.200Z,0.30
2023-03-26T01:49:15.400Z,0.70
2023-03-26T01:51:43.642Z,0.50
2023-03-26T01:54:17.999Z,0.50
2023-03-26T01:57:18.304Z,0.40
2023-03-26T02:00:14.359Z,0.30
2023-03-26T02:02:58.000Z,0.50
2023-03-26T02:05:29.711Z,0.50
2023-03-26T02:08:38.178Z,0.40
2023-03-26T02:11:11.830Z,0.60
2023-03-26T02:13:45.639Z,0.50
2023-03-26T02:16:17.029Z,0.40
2023-03-26T02:18:51.521Z,0.30
2023-03-26T02:21:21.508Z,0.40
2023-03-26T02:23:50.929Z,0.50
2023-03-26T02:26:20.310Z,0.40
2023-03-26T02:28:59.181Z,0.50
2023-03-26T02:31:35.012Z,0.60
2023-03-26T02:34:04.278Z,0.70
2023-03-26T02:36:43.095Z,0.70
2023-03-26T02:39:12.422Z,1.00
2023-03-26T02:41:41.095Z,0.60
2023-03-26T02:44:12.913Z,0.50
2023-03-26T02:46:59.140Z,0.50
2023-03-26T02:49:43.401Z,0.40
2023-03-26T02:52:18.781Z,0.50
2023-03-26T02:54:50.695Z,0.60
2023-03-26T02:57:21.848Z,0.70
2023-03-26T03:00:14.393Z,0.70
2023-03-26T03:03:04.576Z,0.40
2023-03-26T03:05:33.379Z,0.70
2023-03-26T03:08:22.091Z,0.80
2023-03-26T03:11:19.249Z,0.60
2023-03-26T03:13:48.742Z,0.60
2023-03-26T03:16:20.190Z,0.70
2023-03-26T03:18:54.779Z,0.70
2023-03-26T03:21:32.598Z,0.60
2023-03-26T03:24:03.032Z,0.40
2023-03-26T03:26:36.639Z,0.80
2023-03-26T03:29:18.845Z,0.60
2023-03-26T03:31:47.718Z,0.60
2023-03-26T03:34:39.383Z,0.60
2023-03-26T03:37:08.091Z,0.50
2023-03-26T03:39:42.825Z,1.10
2023-03-26T03:42:12.333Z,0.80
2023-03-26T03:44:42.641Z,0.70
2023-03-26T03:47:20.497Z,0.60
2023-03-26T03:49:48.894Z,0.70
2023-03-26T03:52:18.234Z,0.70
2023-03-26T03:54:46.716Z,0.80
2023-03-26T03:57:46.266Z,0.90
2023-03-26T04:00:20.252Z,1.60
2023-03-26T04:02:56.432Z,1.30
2023-03-26T04:05:29.285Z,1.00
2023-03-26T04:07:57.604Z,1.20
2023-03-26T04:10:28.858Z,1.90
2023-03-26T04:13:25.841Z,1.70
2023-03-26T04:16:13.149Z,2.10
2023-03-26T04:18:41.982Z,1.80
2023-03-26T04:23:45.996Z,0.90
2023-03-26T04:26:33.895Z,0.90
2023-03-26T04:29:19.184Z,0.80
2023-03-26T04:34:24.514Z,1.30
2023-03-26T04:37:01.877Z,1.20
2023-03-26T04:39:34.373Z,0.80
2023-03-26T04:42:25.656Z,0.90
2023-03-26T04:45:11.296Z,0.80
2023-03-26T04:47:40.569Z,0.90
2023-03-26T04:57:52.377Z,1.00
2023-03-26T05:00:41.657Z,1.00
2023-03-26T05:03:13.418Z,1.90
2023-03-26T05:05:41.640Z,1.80
2023-03-26T05:08:11.588Z,1.90
2023-03-26T05:10:42.696Z,2.30
2023-03-26T05:13:16.524Z,1.90
2023-03-26T05:15:55.893Z,1.60
2023-03-26T05:18:40.507Z,1.70
2023-03-26T05:21:11.360Z,1.70
2023-03-26T05:23:40.408Z,1.70
2023-03-26T05:26:17.256Z,1.70
2023-03-26T05:28:45.846Z,1.70
2023-03-26T05:31:23.835Z,1.60
2023-03-26T05:33:55.989Z,1.30
2023-03-26T05:36:28.668Z,1.40
2023-03-26T05:39:30.076Z,1.90
2023-03-26T05:42:20.407Z,1.60
2023-03-26T05:45:27.034Z,1.60
2023-03-26T05:47:56.869Z,1.90
2023-03-26T05:50:26.306Z,1.70
2023-03-26T05:53:04.736Z,1.70
2023-03-26T05:56:02.381Z,1.60
2023-03-26T05:58:50.925Z,2.00
2023-03-26T06:01:39.849Z,1.70
2023-03-26T06:04:17.712Z,1.70
2023-03-26T06:07:16.929Z,1.50
2023-03-26T06:09:51.066Z,2.20
2023-03-26T06:12:19.430Z,1.90
2023-03-26T06:14:56.889Z,1.60
2023-03-26T06:17:36.303Z,1.80
2023-03-26T06:20:16.027Z,2.10
2023-03-26T06:22:47.283Z,2.10
2023-03-26T06:25:42.302Z,2.10
2023-03-26T06:28:17.275Z,1.80
2023-03-26T06:31:06.063Z,2.00
2023-03-26T06:34:22.250Z,1.90
2023-03-26T06:36:52.842Z,2.50
2023-03-26T06:39:47.971Z,2.20
2023-03-26T06:42:19.394Z,2.00
2023-03-26T06:45:25.624Z,2.10
2023-03-26T06:48:28.512Z,2.10
2023-03-26T06:51:17.043Z,1.30
2023-03-26T06:54:07.208Z,1.20
2023-03-26T06:56:54.056Z,1.10
2023-03-26T06:59:38.090Z,1.80
2023-03-26T07:02:24.589Z,1.50
2023-03-26T07:05:11.677Z,1.80
2023-03-26T07:07:59.654Z,1.50
2023-03-26T07:10:46.993Z,1.10
2023-03-26T07:13:47.789Z,1.30
2023-03-26T07:16:35.027Z,1.30
2023-03-26T07:19:09.457Z,1.60
2023-03-26T07:21:44.305Z,1.30
2023-03-26T07:24:32.718Z,1.50
2023-03-26T07:27:21.523Z,1.80
2023-03-26T07:29:58.746Z,1.50
2023-03-26T07:33:35.916Z,1.20
2023-03-26T07:37:05.876Z,1.10
2023-03-26T07:40:19.012Z,1.20
2023-03-26T07:43:22.463Z,1.40
2023-03-26T07:46:16.995Z,1.10
2023-03-26T07:48:55.742Z,1.80
2023-03-26T07:51:53.237Z,1.50
2023-03-26T07:54:44.464Z,1.40
2023-03-26T07:57:57.413Z,1.80
2023-03-26T08:00:54.124Z,1.10
2023-03-26T08:03:22.593Z,1.10
2023-03-26T08:06:12.844Z,1.30
2023-03-26T08:09:03.661Z,1.10
2023-03-26T08:12:06.788Z,1.60
2023-03-26T08:15:08.182Z,1.10
2023-03-26T08:17:57.271Z,1.00
2023-03-26T08:20:41.630Z,1.20
2023-03-26T08:23:50.326Z,1.50
2023-03-26T08:26:23.821Z,2.10
2023-03-26T08:29:19.792Z,0.90
2023-03-26T08:31:48.728Z,1.50
2023-03-26T08:34:16.808Z,1.20
2023-03-26T08:36:46.143Z,1.00
2023-03-26T08:39:14.418Z,0.30
2023-03-26T08:42:09.441Z,0.40
2023-03-26T08:45:16.327Z,0.40
2023-03-26T08:48:03.998Z,0.60
2023-03-26T08:50:45.098Z,0.50
2023-03-26T08:53:25.570Z,0.60
2023-03-26T08:56:31.052Z,0.80
2023-03-26T08:59:08.281Z,1.00
2023-03-26T09:01:54.460Z,1.00
2023-03-26T09:05:00.054Z,1.20
2023-03-26T09:07:36.670Z,1.30
2023-03-26T09:10:09.214Z,1.10
2023-03-26T09:13:02.432Z,0.90
2023-03-26T09:15:57.551Z,0.80
2023-03-26T09:18:50.956Z,1.40
2023-03-26T09:24:27.925Z,1.20
2023-03-26T09:27:00.447Z,1.10
2023-03-26T09:29:40.688Z,1.10
2023-03-26T09:32:23.096Z,1.00
2023-03-26T09:35:14.338Z,1.00
2023-03-26T09:37:59.069Z,0.90
2023-03-26T09:40:35.391Z,0.70
2023-03-26T09:43:29.011Z,0.70
2023-03-26T09:46:13.473Z,0.40
2023-03-26T09:48:54.253Z,0.40
2023-03-26T09:51:48.884Z,0.30
2023-03-26T09:54:45.056Z,0.30
2023-03-26T09:57:24.209Z,0.60
2023-03-26T09:59:57.684Z,0.50
2023-03-26T10:02:49.245Z,0.50
2023-03-26T10:05:20.718Z,0.30
2023-03-26T10:08:03.060Z,0.30
2023-03-26T10:11:00.388Z,0.50
2023-03-26T10:13:59.002Z,0.30
2023-03-26T10:16:34.297Z,0.20
2023-03-26T10:19:23.548Z,0.40
2023-03-26T10:22:06.391Z,0.20
2023-03-26T10:24:48.692Z,0.30
2023-03-26T10:27:59.010Z,0.40
2023-03-26T10:30:33.364Z,0.10
2023-03-26T10:33:22.483Z,0.30
2023-03-26T10:36:22.251Z,0.40
2023-03-26T10:38:54.404Z,1.20
2023-03-26T10:41:41.387Z,0.20
2023-03-26T10:44:12.645Z,0.10
2023-03-26T10:46:56.228Z,0.10
2023-03-26T10:49:36.046Z,0.40
2023-03-26T10:52:06.965Z,0.20
2023-03-26T10:54:40.611Z,0.10
2023-03-26T10:57:23.130Z,0.20
2023-03-26T10:59:54.063Z,0.30
2023-03-26T11:02:31.087Z,0.10
2023-03-26T11:05:23.151Z,0.20
2023-03-26T11:08:01.963Z,0.20
2023-03-26T11:10:56.815Z,0.40
2023-03-26T11:13:35.007Z,0.40
2023-03-26T11:16:11.227Z,0.30
2023-03-26T11:18:47.884Z,0.30
2023-03-26T11:21:32.704Z,0.30
2023-03-26T11:24:21.485Z,0.50
2023-03-26T11:26:57.787Z,0.50
2023-03-26T11:29:46.955Z,0.70
2023-03-26T11:32:22.360Z,0.70
2023-03-26T11:35:02.473Z,0.40
2023-03-26T11:37:42.732Z,0.10
2023-03-26T11:40:18.137Z,0.10
2023-03-26T11:42:49.977Z,0.20
2023-03-26T11:45:24.151Z,0.20
2023-03-26T11:52:57.534Z,0.20
2023-03-26T11:55:46.861Z,0.30
2023-03-26T11:58:52.347Z,0.40
2023-03-26T12:01:31.334Z,0.20
2023-03-26T12:04:11.266Z,0.20
2023-03-26T12:06:40.246Z,0.30
2023-03-26T12:09:17.549Z,0.20
2023-03-26T12:11:49.835Z,0.50
2023-03-26T12:14:25.471Z,0.10
2023-03-26T12:17:06.764Z,0.20
2023-03-26T12:19:46.935Z,0.20
2023-03-26T12:22:34.003Z,0.20
2023-03-26T12:25:24.758Z,0.50
2023-03-26T12:28:03.145Z,0.40
2023-03-26T12:30:35.336Z,0.30
2023-03-26T12:33:22.046Z,0.70
2023-03-26T12:35:50.858Z,0.60
2023-03-26T12:38:30.319Z,0.60
2023-03-26T12:44:42.801Z,0.50
2023-03-26T12:44:53.965Z,0.60
2023-03-26T12:48:00.036Z,0.30
2023-03-26T12:50:18.815Z,0.10
2023-03-26T13:00:01.277Z,0.20
2023-03-26T13:02:44.230Z,0.30
2023-03-26T13:05:24.071Z,0.30
2023-03-26T13:08:03.799Z,0.20
2023-03-26T13:11:07.045Z,0.30
2023-03-26T13:14:04.303Z,1.20
2023-03-26T13:16:42.485Z,1.30
2023-03-26T13:19:37.788Z,0.30
2023-03-26T13:22:24.739Z,0.90
2023-03-26T13:25:09.620Z,0.60
2023-03-26T13:28:03.185Z,1.90
2023-03-26T13:30:34.957Z,0.80
2023-03-26T13:36:22.348Z,0.50
2023-03-26T13:39:03.763Z,0.60
2023-03-26T13:41:56.550Z,0.90
2023-03-26T13:44:38.760Z,0.40
2023-03-26T13:47:40.564Z,0.20
2023-03-26T13:50:29.345Z,0.20
2023-03-26T13:53:07.014Z,0.40
2023-03-26T13:55:46.047Z,0.40
2023-03-26T13:58:34.248Z,0.30
2023-03-26T14:01:08.251Z,1.80
2023-03-26T14:03:55.718Z,0.80
2023-03-26T14:06:57.683Z,1.60
2023-03-26T14:09:38.347Z,1.30
2023-03-26T14:17:27.435Z,1.10
2023-03-26T14:20:24.224Z,1.10
2023-03-26T14:23:07.160Z,0.60
2023-03-26T14:25:49.699Z,0.80
2023-03-26T14:28:43.462Z,0.50
2023-03-26T14:31:41.124Z,0.30
2023-03-26T14:34:34.844Z,0.50
2023-03-26T14:37:27.764Z,0.50
2023-03-26T14:47:47.038Z,0.30
2023-03-26T14:50:42.601Z,0.20
2023-03-26T14:53:19.498Z,0.30
2023-03-26T14:55:56.738Z,0.20
2023-03-26T14:58:28.200Z,0.30
2023-03-26T15:01:28.340Z,0.70
2023-03-26T15:04:06.477Z,0.30
2023-03-26T15:07:01.276Z,0.30
2023-03-26T15:10:08.570Z,0.40
2023-03-26T15:13:21.958Z,0.50
2023-03-26T15:19:05.953Z,0.30
2023-03-26T15:21:52.831Z,0.60
2023-03-26T15:24:27.470Z,0.30
2023-03-26T15:27:04.633Z,0.30
2023-03-26T15:30:11.702Z,0.80
2023-03-26T15:32:52.796Z,0.60
2023-03-26T15:35:39.311Z,0.70
2023-03-26T15:38:32.878Z,0.50
2023-03-26T15:41:19.627Z,0.60
2023-03-26T15:49:17.546Z,0.40
2023-03-26T15:52:14.241Z,0.80
2023-03-26T15:54:49.131Z,0.60
2023-03-26T15:57:22.461Z,0.80
2023-03-26T16:00:17.314Z,0.60
2023-03-26T16:03:10.307Z,0.50
2023-03-26T16:05:56.541Z,0.60
2023-03-26T16:08:24.656Z,0.80
2023-03-26T16:11:00.196Z,0.80
2023-03-26T16:13:50.798Z,0.90
2023-03-26T16:16:24.189Z,1.10
2023-03-26T16:19:32.718Z,1.10
2023-03-26T16:22:01.569Z,1.10
2023-03-26T16:24:35.084Z,1.40
2023-03-26T16:27:15.898Z,2.20
2023-03-26T16:29:59.992Z,1.80
2023-03-26T16:32:36.078Z,2.00
2023-03-26T16:35:23.303Z,2.50
2023-03-26T16:38:13.977Z,4.00
2023-03-26T16:41:03.748Z,5.70
2023-03-26T16:43:41.058Z,5.60
2023-03-26T16:46:18.573Z,3.20
2023-03-26T16:52:03.029Z,2.10
2023-03-26T16:54:43.551Z,2.60
2023-03-26T16:57:27.793Z,3.90
2023-03-26T17:00:08.239Z,4.10
2023-03-26T17:02:57.008Z,2.10
2023-03-26T17:05:48.554Z,2.50
2023-03-26T17:08:35.568Z,3.70
2023-03-26T17:11:22.249Z,4.60
2023-03-26T17:13:54.547Z,4.50
2023-03-26T17:16:28.188Z,5.00
2023-03-26T17:19:16.448Z,3.80
2023-03-26T17:22:14.403Z,3.80
2023-03-26T17:24:59.858Z,3.70
2023-03-26T17:28:42.975Z,4.10
2023-03-26T17:31:35.631Z,8.00
2023-03-26T17:34:34.062Z,8.10
2023-03-26T17:37:12.702Z,8.30
2023-03-26T17:39:43.989Z,9.30
2023-03-26T17:42:17.019Z,8.60
2023-03-26T17:44:59.209Z,11.80
2023-03-26T17:47:34.913Z,11.40
2023-03-26T17:50:15.994Z,11.40
2023-03-26T17:52:50.091Z,10.00
2023-03-26T17:55:21.310Z,10.60
2023-03-26T17:57:54.531Z,7.50
2023-03-26T18:00:26.004Z,7.40
2023-03-26T18:02:57.464Z,8.40
2023-03-26T18:05:27.762Z,17.40
2023-03-26T18:15:46.755Z,10.80
2023-03-26T18:18:23.941Z,15.60
2023-03-26T18:20:58.023Z,17.80
2023-03-26T18:23:36.857Z,15.00
2023-03-26T18:26:14.259Z,24.70
2023-03-26T18:28:51.485Z,15.50
2023-03-26T18:31:26.372Z,14.50
2023-03-26T18:33:59.326Z,16.80
2023-03-26T18:36:30.843Z,16.60
2023-03-26T18:38:59.234Z,15.50
2023-03-26T18:41:32.333Z,50.80
2023-03-26T18:44:08.041Z,26.70
2023-03-26T18:46:45.871Z,15.10
2023-03-26T18:49:17.339Z,10.30
2023-03-26T18:51:56.766Z,10.20
2023-03-26T18:54:26.773Z,12.20
2023-03-26T18:56:55.184Z,12.20
2023-03-26T18:59:32.558Z,12.60
2023-03-26T19:02:04.632Z,7.90
2023-03-26T19:04:34.071Z,7.80
2023-03-26T19:07:04.585Z,8.10
2023-03-26T19:09:32.831Z,8.20
2023-03-26T19:12:07.068Z,7.40
2023-03-26T19:14:51.387Z,6.50
2023-03-26T19:17:30.924Z,6.10
2023-03-26T19:20:01.336Z,6.40
2023-03-26T19:30:29.725Z,7.60
2023-03-26T19:33:18.034Z,6.90
2023-03-26T19:35:51.996Z,7.30
2023-03-26T19:38:23.645Z,7.10
2023-03-26T19:40:54.611Z,7.60
2023-03-26T19:43:28.649Z,8.10
2023-03-26T19:46:04.435Z,7.50
2023-03-26T19:48:46.930Z,7.80
2023-03-26T19:51:25.835Z,8.60
2023-03-26T19:53:56.640Z,9.50
2023-03-26T19:56:24.833Z,9.40
2023-03-26T19:58:55.540Z,10.40
2023-03-26T20:01:28.460Z,9.30
2023-03-26T20:04:00.730Z,9.20
2023-03-26T20:06:44.050Z,8.70
2023-03-26T20:09:14.183Z,9.40
2023-03-26T20:11:43.445Z,10.30
2023-03-26T20:14:26.437Z,11.00
2023-03-26T20:16:55.605Z,12.40
2023-03-26T20:19:28.383Z,15.80
2023-03-26T20:22:02.303Z,14.00
2023-03-26T20:24:30.723Z,10.20
2023-03-26T20:27:02.426Z,8.10
2023-03-26T20:29:33.036Z,7.90
2023-03-26T20:32:01.448Z,7.40
2023-03-26T20:34:30.390Z,7.70
2023-03-26T20:37:01.134Z,7.10
2023-03-26T20:39:31.144Z,7.90
2023-03-26T20:42:00.946Z,7.60
2023-03-26T20:44:30.837Z,8.00
2023-03-26T20:47:00.975Z,8.10
2023-03-26T20:49:32.555Z,9.00
2023-03-26T20:52:00.893Z,11.30
2023-03-26T20:54:31.694Z,11.80
2023-03-26T20:57:02.557Z,12.60
2023-03-26T20:59:33.326Z,11.80
2023-03-26T21:02:02.098Z,10.90
2023-03-26T21:04:30.599Z,11.10
2023-03-26T21:07:07.118Z,12.00
2023-03-26T21:09:41.575Z,11.70
2023-03-26T21:12:46.057Z,11.30
2023-03-26T21:15:23.910Z,11.80
2023-03-26T21:17:53.165Z,12.40
2023-03-26T21:20:22.178Z,11.50
2023-03-26T21:23:15.746Z,12.00
2023-03-26T21:25:44.280Z,10.90
2023-03-26T21:28:41.358Z,9.50
2023-03-26T21:31:22.184Z,11.90
2023-03-26T21:33:50.735Z,10.80
2023-03-26T21:36:19.926Z,10.80
2023-03-26T21:38:50.614Z,10.40
2023-03-26T21:41:45.099Z,10.00
2023-03-26T21:44:14.557Z,10.90
2023-03-26T21:46:43.762Z,11.70
2023-03-26T21:49:13.809Z,11.70
2023-03-26T21:51:43.374Z,10.20
2023-03-26T21:54:25.982Z,9.50
2023-03-26T21:57:23.623Z,9.90
2023-03-26T22:00:19.946Z,10.10
2023-03-26T22:03:09.104Z,10.10
2023-03-26T22:05:55.303Z,10.30
2023-03-26T22:08:32.354Z,11.70
2023-03-26T22:11:01.530Z,11.30
2023-03-26T22:13:31.139Z,11.30
2023-03-26T22:16:02.664Z,14.30
2023-03-26T22:18:31.069Z,13.20
2023-03-26T22:21:00.049Z,11.80
2023-03-26T22:23:34.420Z,10.20
2023-03-26T22:26:06.617Z,9.80
2023-03-26T22:28:36.641Z,9.10
2023-03-26T22:31:09.188Z,10.50
2023-03-26T22:33:40.146Z,10.40
2023-03-26T22:36:22.002Z,9.80
2023-03-26T22:38:53.987Z,10.60
2023-03-26T22:41:24.649Z,9.90
2023-03-26T22:43:56.833Z,9.20
2023-03-26T22:46:26.412Z,8.40
2023-03-26T22:48:55.970Z,9.90
2023-03-26T22:51:28.289Z,9.20
2023-03-26T22:53:57.475Z,9.00
2023-03-26T22:56:27.954Z,9.90
2023-03-26T22:58:56.288Z,8.90
2023-03-26T23:01:25.041Z,8.90
2023-03-26T23:03:54.239Z,8.80
2023-03-26T23:06:24.016Z,9.00
2023-03-26T23:08:52.400Z,10.30
2023-03-26T23:11:22.007Z,8.60
2023-03-26T23:13:51.367Z,8.90
2023-03-26T23:16:21.516Z,7.90
2023-03-26T23:18:50.439Z,8.20
2023-03-26T23:21:27.294Z,8.50
2023-03-26T23:23:55.485Z,9.10
2023-03-26T23:26:24.205Z,8.20
2023-03-26T23:28:52.729Z,8.80
2023-03-26T23:31:20.860Z,8.50
2023-03-26T23:33:50.510Z,10.00
2023-03-26T23:36:20.952Z,9.30
2023-03-26T23:38:49.806Z,10.40
2023-03-26T23:41:21.714Z,9.90
2023-03-26T23:43:55.805Z,9.20
2023-03-26T23:46:31.033Z,9.60
2023-03-26T23:49:02.492Z,9.70
2023-03-26T23:51:33.934Z,9.50
2023-03-26T23:54:02.949Z,8.50
2023-03-26T23:56:33.608Z,7.90
2023-03-26T23:59:06.996Z,7.20
